createdAt,value
2023-01-11T00:01:56.635Z,45.38
2023-01-11T00:04:30.871Z,47.60
2023-01-11T00:07:02.754Z,49.95
2023-01-11T00:09:34.749Z,51.28
2023-01-11T00:12:06.696Z,47.75
2023-01-11T00:14:38.604Z,46.30
2023-01-11T00:17:10.762Z,51.42
2023-01-11T00:19:42.705Z,52.25
2023-01-11T00:22:14.708Z,48.83
2023-01-11T00:24:46.651Z,49.17
2023-01-11T00:27:18.497Z,52.38
2023-01-11T00:29:50.498Z,51.17
2023-01-11T00:32:22.558Z,52.13
2023-01-11T00:34:54.841Z,55.88
2023-01-11T00:37:26.689Z,48.58
2023-01-11T00:39:58.567Z,56.80
2023-01-11T00:42:48.900Z,48.28
2023-01-11T00:45:39.430Z,49.78
2023-01-11T00:48:11.420Z,51.75
2023-01-11T00:50:43.363Z,50.95
2023-01-11T00:53:19.867Z,49.17
2023-01-11T00:55:51.786Z,52.95
2023-01-11T00:58:23.748Z,47.63
2023-01-11T01:00:56.035Z,54.00
2023-01-11T01:03:27.965Z,53.45
2023-01-11T01:05:59.862Z,47.63
2023-01-11T01:08:31.781Z,54.45
2023-01-11T01:11:03.674Z,50.10
2023-01-11T01:13:54.150Z,47.50
2023-01-11T01:16:26.199Z,43.90
2023-01-11T01:19:00.218Z,53.40
2023-01-11T01:21:32.045Z,45.47
2023-01-11T01:24:04.013Z,44.55
2023-01-11T01:26:36.200Z,46.95
2023-01-11T01:29:08.798Z,51.33
2023-01-11T01:31:41.439Z,51.55
2023-01-11T01:34:14.075Z,45.03
2023-01-11T01:36:46.026Z,44.38
2023-01-11T01:39:18.025Z,43.85
2023-01-11T01:41:50.065Z,49.72
2023-01-11T01:44:52.901Z,50.67
2023-01-11T01:47:32.733Z,46.20
2023-01-11T01:50:13.844Z,49.17
2023-01-11T01:52:50.046Z,46.50
2023-01-11T01:55:30.491Z,47.53
2023-01-11T01:58:07.334Z,41.30
2023-01-11T02:00:41.167Z,40.95
2023-01-11T02:03:21.028Z,45.83
2023-01-11T02:05:54.468Z,48.90
2023-01-11T02:08:38.360Z,41.42
2023-01-11T02:11:32.991Z,42.65
2023-01-11T02:14:09.632Z,43.08
2023-01-11T02:16:41.684Z,40.53
2023-01-11T02:19:27.658Z,42.67
2023-01-11T02:22:28.227Z,53.03
2023-01-11T02:25:33.216Z,45.08
2023-01-11T02:28:09.166Z,45.25
2023-01-11T02:31:20.679Z,50.47
2023-01-11T02:34:26.559Z,39.80
2023-01-11T02:37:10.494Z,38.55
2023-01-11T02:39:57.998Z,41.30
2023-01-11T02:42:54.469Z,42.45
2023-01-11T02:45:42.651Z,43.47
2023-01-11T02:48:20.163Z,40.60
2023-01-11T02:51:02.832Z,36.28
2023-01-11T02:53:55.903Z,39.92
2023-01-11T02:56:32.562Z,39.67
2023-01-11T02:59:06.020Z,42.72
2023-01-11T03:01:48.874Z,36.75
2023-01-11T03:04:25.284Z,39.05
2023-01-11T03:07:42.956Z,46.08
2023-01-11T03:10:33.307Z,39.08
2023-01-11T03:13:34.325Z,40.33
2023-01-11T03:16:12.404Z,36.17
2023-01-11T03:19:11.792Z,35.50
2023-01-11T03:22:18.957Z,34.72
2023-01-11T03:25:14.747Z,39.78
2023-01-11T03:28:02.860Z,40.85
2023-01-11T03:30:49.300Z,42.85
2023-01-11T03:33:31.129Z,41.55
2023-01-11T03:36:12.097Z,40.70
2023-01-11T03:38:56.307Z,45.58
2023-01-11T03:41:33.244Z,35.58
2023-01-11T03:44:14.965Z,35.60
2023-01-11T03:47:30.516Z,34.42
2023-01-11T03:53:47.876Z,33.40
2023-01-11T03:56:27.746Z,33.97
2023-01-11T04:02:02.777Z,29.45
2023-01-11T04:05:03.455Z,36.67
2023-01-11T04:07:56.803Z,35.38
2023-01-11T04:19:50.429Z,34.97
2023-01-11T04:22:56.004Z,47.78
2023-01-11T04:26:08.543Z,40.58
2023-01-11T04:29:06.067Z,33.15
2023-01-11T04:31:48.063Z,35.58
2023-01-11T04:34:38.330Z,34.08
2023-01-11T04:40:36.841Z,37.28
2023-01-11T04:43:20.120Z,36.45
2023-01-11T04:46:19.831Z,30.13
2023-01-11T04:55:14.633Z,36.25
2023-01-11T04:57:47.659Z,41.95
2023-01-11T05:00:20.256Z,34.53
2023-01-11T05:02:57.118Z,33.47
2023-01-11T05:05:34.585Z,27.35
2023-01-11T05:08:07.227Z,27.77
2023-01-11T05:10:44.302Z,31.23
2023-01-11T05:13:17.939Z,34.25
2023-01-11T05:15:49.921Z,25.98
2023-01-11T05:18:22.533Z,28.55
2023-01-11T05:20:54.557Z,41.65
2023-01-11T05:23:26.641Z,32.83
2023-01-11T05:26:02.370Z,34.28
2023-01-11T05:28:39.503Z,27.20
2023-01-11T05:31:12.170Z,26.42
2023-01-11T05:33:44.546Z,27.83
2023-01-11T05:36:19.050Z,29.50
2023-01-11T05:38:52.372Z,32.55
2023-01-11T05:41:26.749Z,21.08
2023-01-11T05:44:17.108Z,25.52
2023-01-11T05:46:49.177Z,25.85
2023-01-11T05:49:21.346Z,19.17
2023-01-11T05:51:53.314Z,21.63
2023-01-11T05:54:25.278Z,29.38
2023-01-11T05:56:58.187Z,22.77
2023-01-11T05:59:32.139Z,21.08
2023-01-11T06:02:04.854Z,24.23
2023-01-11T06:04:37.031Z,19.88
2023-01-11T06:07:10.373Z,21.35
2023-01-11T06:09:42.299Z,19.17
2023-01-11T06:12:14.416Z,19.45
2023-01-11T06:14:46.365Z,19.83
2023-01-11T06:17:18.399Z,19.65
2023-01-11T06:19:50.374Z,19.08
2023-01-11T06:22:22.541Z,18.38
2023-01-11T06:24:54.622Z,21.58
2023-01-11T06:27:29.621Z,21.63
2023-01-11T06:30:01.625Z,22.35
2023-01-11T06:32:33.587Z,21.52
2023-01-11T06:35:06.068Z,15.68
2023-01-11T06:37:38.042Z,19.38
2023-01-11T06:40:10.766Z,18.23
2023-01-11T06:42:42.710Z,17.42
2023-01-11T06:45:14.787Z,16.92
2023-01-11T06:47:46.714Z,15.85
2023-01-11T06:50:18.811Z,14.05
2023-01-11T06:52:58.674Z,15.68
2023-01-11T06:55:31.379Z,16.83
2023-01-11T06:58:03.392Z,16.20
2023-01-11T07:00:35.734Z,15.25
2023-01-11T07:03:07.916Z,17.45
2023-01-11T07:05:40.846Z,21.63
2023-01-11T07:08:13.283Z,30.02
2023-01-11T07:10:46.047Z,33.80
2023-01-11T07:13:20.997Z,24.10
2023-01-11T07:15:54.506Z,24.77
2023-01-11T07:18:26.600Z,20.33
2023-01-11T07:20:58.547Z,23.92
2023-01-11T07:23:30.567Z,19.20
2023-01-11T07:26:03.372Z,22.60
2023-01-11T07:28:35.416Z,19.98
2023-01-11T07:31:07.399Z,26.83
2023-01-11T07:33:39.544Z,25.50
2023-01-11T07:36:11.598Z,29.55
2023-01-11T07:38:43.571Z,23.25
2023-01-11T07:41:42.436Z,18.42
2023-01-11T07:44:33.760Z,16.83
2023-01-11T08:01:46.024Z,17.45
2023-01-11T08:12:01.067Z,16.50
2023-01-11T08:15:00.578Z,14.23
2023-01-11T08:20:58.998Z,14.15
2023-01-11T08:23:39.268Z,15.15
2023-01-11T08:26:16.466Z,17.52
2023-01-11T08:28:48.782Z,17.75
2023-01-11T08:31:21.812Z,16.65
2023-01-11T08:33:54.032Z,16.73
2023-01-11T08:36:39.018Z,17.48
2023-01-11T08:42:06.702Z,16.27
2023-01-11T08:44:38.721Z,16.50
2023-01-11T08:47:10.788Z,14.23
2023-01-11T08:49:43.396Z,18.05
2023-01-11T08:52:15.357Z,13.15
2023-01-11T08:54:47.424Z,16.85
2023-01-11T08:57:19.400Z,19.20
2023-01-11T08:59:51.368Z,15.07
2023-01-11T09:02:23.385Z,16.65
2023-01-11T09:04:55.295Z,16.20
2023-01-11T09:07:27.320Z,26.20
2023-01-11T09:09:59.286Z,16.00
2023-01-11T09:12:33.057Z,14.93
2023-01-11T09:15:09.189Z,16.77
2023-01-11T09:17:41.215Z,14.57
2023-01-11T09:20:13.924Z,16.20
2023-01-11T09:22:53.427Z,13.15
2023-01-11T09:25:25.770Z,13.55
2023-01-11T09:27:57.775Z,16.13
2023-01-11T09:30:29.995Z,15.20
2023-01-11T09:33:01.997Z,16.35
2023-01-11T09:35:42.637Z,14.15
2023-01-11T09:38:14.789Z,12.52
2023-01-11T09:40:57.344Z,15.93
2023-01-11T09:43:31.547Z,17.80
2023-01-11T09:46:08.631Z,15.80
2023-01-11T09:48:52.879Z,13.57
2023-01-11T09:51:33.584Z,14.18
2023-01-11T09:54:10.431Z,12.73
2023-01-11T09:56:52.639Z,23.40
2023-01-11T10:00:05.330Z,18.23
2023-01-11T10:03:14.640Z,46.90
2023-01-11T10:05:51.743Z,23.90
2023-01-11T10:18:27.592Z,16.83
2023-01-11T10:18:48.836Z,15.30
2023-01-11T10:21:23.764Z,16.67
2023-01-11T10:24:05.364Z,14.02
2023-01-11T10:26:40.416Z,17.58
2023-01-11T10:29:58.787Z,13.35
2023-01-11T10:32:48.525Z,14.13
2023-01-11T10:36:10.634Z,15.60
2023-01-11T10:38:58.019Z,16.23
2023-01-11T10:42:06.162Z,18.33
2023-01-11T10:44:45.191Z,19.60
2023-01-11T10:47:22.413Z,19.33
2023-01-11T10:50:05.929Z,15.52
2023-01-11T10:53:06.812Z,18.95
2023-01-11T10:55:46.078Z,15.88
2023-01-11T10:58:24.017Z,15.38
2023-01-11T11:01:24.666Z,16.00
2023-01-11T11:04:15.383Z,18.63
2023-01-11T11:06:50.295Z,18.52
2023-01-11T11:09:41.069Z,17.67
2023-01-11T11:12:22.119Z,20.27
2023-01-11T11:15:12.270Z,20.92
2023-01-11T11:17:51.251Z,19.40
2023-01-11T11:20:26.240Z,22.20
2023-01-11T11:22:58.507Z,20.38
2023-01-11T11:25:33.635Z,16.60
2023-01-11T11:28:08.191Z,15.52
2023-01-11T11:30:43.706Z,19.33
2023-01-11T11:33:25.259Z,18.10
2023-01-11T11:36:09.231Z,18.13
2023-01-11T11:39:00.810Z,15.88
2023-01-11T11:41:47.331Z,18.85
2023-01-11T11:44:29.159Z,17.10
2023-01-11T11:47:15.600Z,15.20
2023-01-11T11:49:48.110Z,17.77
2023-01-11T11:52:20.320Z,16.10
2023-01-11T11:54:58.393Z,17.92
2023-01-11T11:57:39.150Z,15.05
2023-01-11T12:00:28.834Z,18.10
2023-01-11T12:03:17.457Z,16.85
2023-01-11T12:06:04.569Z,17.33
2023-01-11T12:08:36.821Z,17.42
2023-01-11T12:11:30.361Z,14.93
2023-01-11T12:14:04.340Z,16.92
2023-01-11T12:16:40.836Z,17.73
2023-01-11T12:19:46.191Z,19.75
2023-01-11T12:22:23.750Z,20.75
2023-01-11T12:25:14.469Z,17.67
2023-01-11T12:28:09.083Z,16.00
2023-01-11T12:31:11.241Z,16.85
2023-01-11T12:33:44.765Z,16.02
2023-01-11T12:36:42.896Z,15.63
2023-01-11T12:39:37.916Z,15.65
2023-01-11T12:42:31.314Z,16.52
2023-01-11T12:45:39.647Z,17.83
2023-01-11T12:48:23.799Z,17.42
2023-01-11T12:51:10.864Z,15.00
2023-01-11T12:54:04.428Z,16.45
2023-01-11T12:56:47.471Z,15.50
2023-01-11T13:00:24.105Z,13.82
2023-01-11T13:03:16.677Z,14.18
2023-01-11T13:05:57.331Z,15.48
2023-01-11T13:09:15.999Z,15.63
2023-01-11T13:12:05.269Z,14.85
2023-01-11T13:14:37.227Z,15.50
2023-01-11T13:17:27.397Z,15.57
2023-01-11T13:20:23.641Z,15.30
2023-01-11T13:23:19.535Z,14.20
2023-01-11T13:25:53.276Z,14.35
2023-01-11T13:28:37.023Z,15.40
2023-01-11T13:31:12.990Z,15.25
2023-01-11T13:33:53.055Z,16.00
2023-01-11T13:36:30.877Z,16.27
2023-01-11T13:39:28.581Z,16.50
2023-01-11T13:42:04.751Z,17.52
2023-01-11T13:44:51.889Z,17.00
2023-01-11T13:47:46.813Z,16.95
2023-01-11T13:50:27.224Z,14.75
2023-01-11T13:53:14.140Z,15.40
2023-01-11T13:56:09.235Z,15.65
2023-01-11T13:59:01.896Z,16.85
2023-01-11T14:01:57.037Z,16.58
2023-01-11T14:04:57.855Z,15.90
2023-01-11T14:07:44.882Z,17.35
2023-01-11T14:10:35.434Z,16.27
2023-01-11T14:14:03.719Z,17.77
2023-01-11T14:16:38.388Z,17.40
2023-01-11T14:19:20.413Z,17.48
2023-01-11T14:22:00.482Z,18.17
2023-01-11T14:24:36.178Z,18.55
2023-01-11T14:27:35.650Z,19.08
2023-01-11T14:30:31.751Z,19.10
2023-01-11T14:33:41.315Z,18.60
2023-01-11T14:36:39.520Z,21.25
2023-01-11T14:39:41.294Z,23.00
2023-01-11T14:42:35.734Z,19.85
2023-01-11T14:45:29.425Z,21.80
2023-01-11T14:48:04.187Z,22.23
2023-01-11T14:51:14.489Z,23.50
2023-01-11T14:54:11.086Z,23.25
2023-01-11T14:56:43.037Z,25.63
2023-01-11T14:59:36.068Z,25.17
2023-01-11T15:02:23.487Z,27.92
2023-01-11T15:04:55.909Z,24.95
2023-01-11T15:07:30.983Z,23.60
2023-01-11T15:10:25.295Z,25.85
2023-01-11T15:12:58.634Z,26.98
2023-01-11T15:15:50.675Z,25.42
2023-01-11T15:18:26.232Z,23.15
2023-01-11T15:21:04.179Z,20.38
2023-01-11T15:23:38.611Z,20.25
2023-01-11T15:26:10.970Z,19.70
2023-01-11T15:28:53.367Z,18.85
2023-01-11T15:31:44.383Z,18.80
2023-01-11T15:34:25.145Z,19.25
2023-01-11T15:37:03.920Z,18.10
2023-01-11T15:39:44.660Z,18.60
2023-01-11T15:45:12.748Z,20.70
2023-01-11T15:48:00.058Z,20.60
2023-01-11T15:50:54.066Z,21.48
2023-01-11T15:53:50.658Z,22.58
2023-01-11T15:56:28.716Z,23.38
2023-01-11T15:59:38.554Z,22.90
2023-01-11T16:02:13.490Z,21.88
2023-01-11T16:04:53.616Z,24.50
2023-01-11T16:08:02.576Z,23.65
2023-01-11T16:10:50.636Z,25.10
2023-01-11T16:13:48.960Z,22.52
2023-01-11T16:16:29.528Z,23.20
2023-01-11T16:19:22.017Z,22.92
2023-01-11T16:21:58.205Z,23.80
2023-01-11T16:24:37.996Z,23.33
2023-01-11T16:27:27.455Z,22.63
2023-01-11T16:30:00.304Z,21.65
2023-01-11T16:32:35.643Z,23.83
2023-01-11T16:35:22.989Z,23.55
2023-01-11T16:38:01.722Z,22.75
2023-01-11T16:40:40.813Z,21.95
2023-01-11T16:43:18.513Z,23.55
2023-01-11T16:45:54.450Z,23.33
2023-01-11T16:48:27.413Z,23.83
2023-01-11T16:51:19.695Z,25.45
2023-01-11T16:53:58.265Z,23.67
2023-01-11T16:56:35.649Z,22.75
2023-01-11T16:59:13.803Z,24.05
2023-01-11T17:01:48.597Z,23.77
2023-01-11T17:04:35.930Z,23.00
2023-01-11T17:07:22.218Z,24.50
2023-01-11T17:09:54.569Z,24.33
2023-01-11T17:12:27.313Z,24.42
2023-01-11T17:15:10.113Z,24.95
2023-01-11T17:17:42.163Z,24.88
2023-01-11T17:20:22.067Z,23.52
2023-01-11T17:22:54.293Z,24.10
2023-01-11T17:25:43.856Z,25.05
2023-01-11T17:28:19.776Z,24.48
2023-01-11T17:30:53.875Z,25.23
2023-01-11T17:33:29.696Z,24.50
2023-01-11T17:36:02.775Z,28.02
2023-01-11T17:38:35.144Z,25.73
2023-01-11T17:41:28.314Z,25.88
2023-01-11T17:44:19.247Z,25.90
2023-01-11T17:49:24.688Z,26.58
2023-01-11T17:51:56.681Z,23.75
2023-01-11T17:54:29.208Z,26.08
2023-01-11T17:57:01.592Z,25.90
2023-01-11T17:59:34.397Z,26.63
2023-01-11T18:02:16.024Z,24.58
2023-01-11T18:04:59.444Z,25.08
2023-01-11T18:07:31.884Z,24.15
2023-01-11T18:10:04.248Z,24.42
2023-01-11T18:12:36.431Z,25.13
2023-01-11T18:15:18.534Z,25.58
2023-01-11T18:17:57.106Z,24.63
2023-01-11T18:20:36.463Z,24.27
2023-01-11T18:23:08.370Z,23.00
2023-01-11T18:25:40.871Z,25.23
2023-01-11T18:28:12.952Z,23.38
2023-01-11T18:30:54.105Z,22.58
2023-01-11T18:33:29.788Z,22.98
2023-01-11T18:36:04.228Z,21.90
2023-01-11T18:38:36.595Z,22.52
2023-01-11T18:41:28.880Z,23.55
2023-01-11T18:44:01.599Z,24.25
2023-01-11T18:46:38.092Z,23.73
2023-01-11T18:49:10.131Z,22.55
2023-01-11T18:51:45.483Z,24.92
2023-01-11T18:54:22.385Z,24.63
2023-01-11T18:56:54.481Z,22.17
2023-01-11T18:59:26.430Z,23.95
2023-01-11T19:02:22.635Z,23.17
2023-01-11T19:04:56.836Z,23.98
2023-01-11T19:07:28.780Z,23.10
2023-01-11T19:10:00.715Z,23.20
2023-01-11T19:12:32.874Z,25.90
2023-01-11T19:15:05.191Z,24.75
2023-01-11T19:17:39.573Z,22.90
2023-01-11T19:20:13.688Z,22.88
2023-01-11T19:22:45.646Z,23.98
2023-01-11T19:25:17.802Z,23.88
2023-01-11T19:27:54.105Z,24.70
2023-01-11T19:30:27.174Z,24.75
2023-01-11T19:32:59.133Z,23.75
2023-01-11T19:35:31.117Z,24.35
2023-01-11T19:38:03.107Z,25.13
2023-01-11T19:40:41.045Z,25.77
2023-01-11T19:43:13.494Z,24.80
2023-01-11T19:45:48.621Z,24.50
2023-01-11T19:48:23.580Z,25.48
2023-01-11T19:51:11.974Z,24.90
2023-01-11T19:53:43.919Z,24.42
2023-01-11T19:56:15.865Z,26.77
2023-01-11T19:58:47.824Z,25.50
2023-01-11T20:01:19.798Z,26.75
2023-01-11T20:03:51.945Z,25.23
2023-01-11T20:06:26.249Z,26.77
2023-01-11T20:08:58.742Z,28.67
2023-01-11T20:11:33.305Z,27.20
2023-01-11T20:14:07.461Z,28.48
2023-01-11T20:16:39.505Z,28.25
2023-01-11T20:19:19.388Z,28.92
2023-01-11T20:22:00.313Z,28.02
2023-01-11T20:24:32.528Z,31.50
2023-01-11T20:27:14.926Z,30.42
2023-01-11T20:30:00.329Z,31.85
2023-01-11T20:32:41.991Z,31.98
2023-01-11T20:35:15.044Z,29.13
2023-01-11T20:37:47.067Z,30.77
2023-01-11T20:40:19.245Z,29.55
2023-01-11T20:42:51.236Z,28.17
2023-01-11T20:45:23.273Z,31.08
2023-01-11T20:48:01.448Z,30.85
2023-01-11T20:50:35.167Z,32.33
2023-01-11T20:53:09.306Z,32.22
2023-01-11T20:55:41.250Z,30.98
2023-01-11T20:58:16.831Z,30.48
2023-01-11T21:00:55.368Z,30.83
2023-01-11T21:03:38.963Z,27.38
2023-01-11T21:06:15.581Z,30.67
2023-01-11T21:08:47.895Z,28.45
2023-01-11T21:11:23.084Z,31.92
2023-01-11T21:16:30.033Z,31.42
2023-01-11T21:19:03.769Z,29.60
2023-01-11T21:21:50.017Z,29.27
2023-01-11T21:24:24.937Z,28.92
2023-01-11T21:27:06.348Z,26.63
2023-01-11T21:29:45.711Z,28.98
2023-01-11T21:32:17.935Z,28.83
2023-01-11T21:34:49.824Z,28.77
2023-01-11T21:37:25.485Z,27.25
2023-01-11T21:40:00.302Z,27.70
2023-01-11T21:42:32.402Z,27.40
2023-01-11T21:45:10.701Z,26.30
2023-01-11T21:47:45.238Z,27.30
2023-01-11T21:50:20.657Z,26.25
2023-01-11T21:52:55.557Z,27.77
2023-01-11T21:55:33.690Z,26.80
2023-01-11T21:58:06.144Z,25.85
2023-01-11T22:00:38.153Z,28.52
2023-01-11T22:03:21.937Z,27.17
2023-01-11T22:05:55.066Z,27.25
2023-01-11T22:08:27.414Z,30.40
2023-01-11T22:11:01.209Z,38.65
2023-01-11T22:13:37.429Z,36.05
2023-01-11T22:16:16.797Z,31.95
2023-01-11T22:18:54.848Z,29.85
2023-01-11T22:21:27.666Z,30.65
2023-01-11T22:24:15.892Z,32.88
2023-01-11T22:27:20.574Z,35.80
2023-01-11T22:29:54.956Z,35.83
2023-01-11T22:32:31.370Z,33.50
2023-01-11T22:35:03.470Z,28.27
2023-01-11T22:37:40.566Z,28.73
2023-01-11T22:40:15.233Z,26.10
2023-01-11T22:42:47.427Z,30.35
2023-01-11T22:45:19.497Z,26.65
2023-01-11T22:48:00.519Z,26.90
2023-01-11T22:50:37.922Z,31.48
2023-01-11T22:53:25.306Z,25.42
2023-01-11T22:56:01.986Z,24.33
2023-01-11T22:58:55.438Z,25.35
2023-01-11T23:01:56.063Z,23.75
2023-01-11T23:04:42.637Z,23.45
2023-01-11T23:07:20.599Z,26.95
2023-01-11T23:09:52.610Z,24.88
2023-01-11T23:12:53.988Z,25.70
2023-01-11T23:15:25.968Z,28.15
2023-01-11T23:18:06.197Z,24.15
2023-01-11T23:20:38.303Z,25.90
2023-01-11T23:23:10.383Z,25.02
2023-01-11T23:25:42.391Z,23.75
2023-01-11T23:28:14.498Z,25.35
2023-01-11T23:30:46.453Z,25.75
2023-01-11T23:33:18.558Z,24.65
2023-01-11T23:36:00.052Z,25.30
2023-01-11T23:38:33.520Z,25.55
2023-01-11T23:41:29.231Z,26.40
2023-01-11T23:44:01.995Z,28.02
2023-01-11T23:46:52.532Z,30.73
2023-01-11T23:49:27.467Z,28.00
2023-01-11T23:52:00.281Z,29.58
2023-01-11T23:54:33.827Z,28.65
2023-01-11T23:57:06.140Z,26.70
2023-01-11T23:59:38.881Z,28.98
